Flight Track Log - Related Links

Times and Time Zones

All times are in EDT time to prevent confusion due to time zone crossing. See the DAL6225 flight status page for this flight to view local times or setup timezone preferences in your user account.

Time Position Orientation Groundspeed Altitude Reporting Facility
EDT Latitude Longitude Course Direction KTS MPH feet Rate Location/Type
Mon 08:34:27 43.1019 -89.3139 104° East 205 236 2,800  Level Chicago Center
Mon 08:35:29 43.0867 -89.2286 104° East 228 262 5,000 2,516 Climbing Chicago Center
Mon 08:36:31 43.0883 -89.1078 89° East 267 307 8,000 2,758 Climbing Chicago Center
Mon 08:37:33 43.0931 -88.9994 87° East 282 325 10,700 2,226 Climbing Chicago Center
Mon 08:38:35 43.0978 -88.8806 87° East 309 356 12,600 1,887 Climbing Chicago Center
Mon 08:39:37 43.1019 -88.7492 87° East 342 394 14,600 1,935 Climbing Chicago Center
Mon 08:40:39 43.1067 -88.5878 88° East 365 420 16,600 1,645 Climbing Chicago Center
Mon 08:41:41 43.1114 -88.4411 87° East 385 443 18,000 1,548 Climbing Chicago Center
Mon 08:42:43 43.1161 -88.2914 87° East 394 453 19,800 1,742 Climbing Chicago Center
Mon 08:43:45 43.1225 -88.1383 87° East 403 464 21,600 1,597 Climbing Chicago Center
Mon 08:44:47 43.1128 -87.9856 95° East 406 467 23,100 1,306 Climbing Chicago Center
Mon 08:45:49 43.0936 -87.7997 98° East 420 483 24,300 1,113 Climbing Chicago Center
Mon 08:46:51 43.0753 -87.6356 99° East 433 498 25,400 1,161 Climbing Chicago Center
Mon 08:47:53 43.0597 -87.4675 97° East 444 511 26,700 1,258 Climbing Chicago Center
Mon 08:48:55 43.0428 -87.2972 98° East 444 511 28,000 1,113 Climbing Chicago Center
Mon 08:49:57 43.0361 -87.1281 93° East 447 514 29,000 968 Climbing Chicago Center
Mon 08:50:59 43.0422 -86.9567 87° East 452 520 30,000 871 Climbing Chicago Center
Mon 08:52:01 43.0461 -86.7850 88° East 454 522 30,800 871 Climbing Chicago Center
Mon 08:53:03 43.0500 -86.5758 88° East 459 528 31,800 871 Climbing Chicago Center
Mon 08:54:05 43.0542 -86.4003 88° East 462 532 32,600 774 Climbing Chicago Center
Mon 08:55:07 43.0569 -86.2239 89° East 465 535 33,400 823 Climbing Chicago Center
Mon 08:56:09 43.0594 -86.0433 89° East 460 529 34,300 774 Climbing Chicago Center
Mon 08:57:11 43.0619 -85.8658 89° East 464 534 35,000 339 Climbing Chicago Center
Mon 08:58:13 43.0636 -85.6792 89° East 466 536 35,000  Level Chicago Center
Mon 08:59:15 43.0675 -85.5008 88° East 469 540 35,000  Level Chicago Center
Mon 09:00:17 43.0928 -85.3292 79° East 460 529 35,000  Level Chicago Center
Mon 09:01:18 43.1181 -85.1556 79° East 466 536 35,000  Level Chicago Center
Mon 09:01:49 43.1328 -85.0444 80° East 448 516 35,000  Level Cleveland Center
Mon 09:02:49 43.1561 -84.8667 80° East 464 534 35,000  Level Cleveland Center
Mon 09:03:49 43.1811 -84.6919 79° East 464 534 35,000  Level Cleveland Center
Mon 09:04:49 43.2083 -84.5142 78° East 469 540 35,000  Level Cleveland Center
Mon 09:05:49 43.2347 -84.3392 78° East 469 540 35,000  Level Cleveland Center
Mon 09:06:49 43.2589 -84.1694 79° East 464 534 35,000  Level Cleveland Center
Mon 09:07:49 43.2497 -83.9950 94° East 459 528 35,000  Level Cleveland Center
Mon 09:08:49 43.2458 -83.8353 92° East 459 528 35,000  Level Cleveland Center
Mon 09:09:49 43.2381 -83.6639 94° East 459 528 35,000  Level Cleveland Center
Mon 09:10:49 43.2303 -83.4897 93° East 459 528 35,000  Level Cleveland Center
Mon 09:11:49 43.2242 -83.3097 93° East 459 528 35,000  Level Cleveland Center
Mon 09:12:49 43.2136 -83.1328 95° East 464 534 35,000  Level Cleveland Center
Mon 09:13:49 43.2069 -82.9558 93° East 464 534 35,000  Level Cleveland Center
Mon 09:14:49 43.1981 -82.7761 94° East 464 534 35,000  Level Cleveland Center
Mon 09:15:46 43.1833 -82.5833 96° East 470 541 35,000  Level Toronto Center
Mon 09:16:46 43.1667 -82.4000 97° East 470 541 35,000  Level Toronto Center
Mon 09:17:46 43.1667 -82.2167 90° East 460 529 35,000  Level Toronto Center
Mon 09:18:46 43.1500 -82.0500 98° East 460 529 35,000  Level Toronto Center
Mon 09:19:46 43.1500 -81.8667 90° East 460 529 35,000  Level Toronto Center
Mon 09:20:46 43.1333 -81.7167 99° East 460 529 35,000  Level Toronto Center
Mon 09:21:46 43.1167 -81.5333 97° East 450 518 35,000  Level Toronto Center
Mon 09:22:46 43.1167 -81.3500 90° East 450 518 35,000  Level Toronto Center
Mon 09:23:46 43.1000 -81.1833 98° East 460 529 35,000  Level Toronto Center
Mon 09:24:46 43.0833 -81.0333 99° East 460 529 35,000  Level Toronto Center
Mon 09:25:46 43.0667 -80.8167 96° East 470 541 35,000  Level Toronto Center
Mon 09:26:46 43.0833 -80.6667 81° East 470 541 35,000  Level Toronto Center
Mon 09:27:46 43.0667 -80.4833 97° East 470 541 35,000  Level Toronto Center
Mon 09:28:46 43.0500 -80.3167 98° East 460 529 35,000  Level Toronto Center
Mon 09:29:46 43.0333 -80.1333 97° East 460 529 35,000  Level Toronto Center
Mon 09:30:46 43.0167 -79.9500 97° East 470 541 35,000  Level Toronto Center
Mon 09:31:46 43.0167 -79.8000 90° East 460 529 35,000  Level Toronto Center
Mon 09:32:46 43.0000 -79.6167 97° East 460 529 35,000  Level Toronto Center
Mon 09:33:46 42.9833 -79.4333 97° East 460 529 35,000  Level Toronto Center
Mon 09:34:46 42.9667 -79.2500 97° East 460 529 35,000  Level Toronto Center
Mon 09:35:46 42.9500 -79.0667 97° East 460 529 35,000  Level Toronto Center
Mon 09:36:46 42.9500 -78.9000 90° East 470 541 35,000  Level Toronto Center
Mon 09:37:46 42.9333 -78.7500 99° East 470 541 35,000  Level Toronto Center
Mon 09:38:01 42.9372 -78.7256 78° East 461 531 35,000  Level Cleveland Center
Mon 09:39:01 42.9217 -78.5503 97° East 461 531 35,000  Level Cleveland Center
Mon 09:40:01 42.9019 -78.3753 99° East 461 531 35,000  Level Cleveland Center
Mon 09:41:01 42.8858 -78.2058 97° East 461 531 35,000  Level Cleveland Center
Mon 09:42:01 42.8678 -78.0308 98° East 461 531 35,000  Level Cleveland Center
Mon 09:43:01 42.8469 -77.8589 99° East 461 531 35,000  Level Cleveland Center
Mon 09:44:01 42.8283 -77.6869 98° East 461 531 35,000  Level Cleveland Center
Mon 09:45:01 42.8053 -77.5211 101° East 461 531 35,000  Level Cleveland Center
Mon 09:46:01 42.7794 -77.3356 101° East 461 531 35,000  Level Cleveland Center
Mon 09:47:01 42.7558 -77.1672 101° East 456 525 35,000  Level Cleveland Center
Mon 09:48:46 42.7000 -76.8500 103° East 460 529 35,000  Level Toronto Center
Mon 09:49:39 42.6944 -76.7375 94° East 472 543 35,000 -212 Level Boston Center
Mon 09:50:39 42.6694 -76.5689 101° East 460 529 34,600 -850 Descending Boston Center
Mon 09:51:39 42.6442 -76.3978 101° East 460 529 33,300 -1,350 Descending Boston Center
Mon 09:52:39 42.6189 -76.2242 101° East 455 524 31,900 -1,450 Descending Boston Center
Mon 09:53:39 42.5931 -76.0561 102° East 455 524 30,400 -1,500 Descending Boston Center
Mon 09:54:39 42.5669 -75.8881 102° East 455 524 28,900 -1,500 Descending Boston Center
Mon 09:55:39 42.5444 -75.7292 101° East 443 510 27,400 -1,450 Descending Boston Center
Mon 09:56:39 42.5156 -75.5725 104° East 432 497 26,000 -1,400 Descending Boston Center
Mon 09:57:39 42.4928 -75.4136 101° East 427 491 24,600 -1,200 Descending Boston Center
Mon 09:58:39 42.4675 -75.2547 102° East 427 491 23,600 -1,045 Descending Boston Center
Mon 09:59:51 42.4092 -75.0833 115° Southeast 427 491 22,300 -1,136 Descending Boston Center
Mon 10:00:51 42.3561 -74.9436 117° Southeast 415 478 21,100 -1,200 Descending Boston Center
Mon 10:01:51 42.3069 -74.8094 116° Southeast 410 472 19,900 -1,100 Descending Boston Center
Mon 10:02:51 42.2575 -74.6758 117° Southeast 403 464 18,900 -1,000 Descending Boston Center
Mon 10:03:51 42.2081 -74.5422 117° Southeast 398 458 17,900 -450 Descending Boston Center
Mon 10:04:51 42.1542 -74.4033 118° Southeast 393 452 18,000 50 Climbing Boston Center
Mon 10:05:51 42.1064 -74.2731 116° Southeast 393 452 18,000  Level Boston Center
Mon 10:06:51 42.0456 -74.1511 124° Southeast 393 452 18,000  Level Boston Center
Mon 10:07:51 41.9850 -74.0322 124° Southeast 393 452 18,000  Level Boston Center
Mon 10:08:51 41.9239 -73.9106 124° Southeast 393 452 18,000 -700 Level Boston Center
Mon 10:09:51 41.8583 -73.8253 136° Southeast 383 441 16,600 -1,500 Descending Boston Center
Mon 10:10:51 41.7481 -73.8231 179° South 336 387 15,000 -1,500 Descending Boston Center
Mon 10:11:51 41.6625 -73.8294 183° South 347 399 13,600 -1,450 Descending Boston Center
Mon 10:12:51 41.5664 -73.8497 189° South 340 391 12,100 -1,500 Descending Boston Center
Mon 10:13:15 41.5333 -73.8500 180° South 288 331 11,500 -1,429 Descending New TRACON
Mon 10:14:15 41.4667 -73.8833 201° Southwest 277 319 10,100 -1,200 Descending New TRACON
Mon 10:15:15 41.3833 -73.8333 156° South 270 311 9,100 -550 Descending New TRACON
Mon 10:16:15 41.3333 -73.7833 143° Southeast 273 314 9,000 -48 Descending New TRACON
Mon 10:17:21 41.2667 -73.7167 143° Southeast 272 313 9,000 -500 Level New TRACON
Mon 10:18:15 41.2000 -73.6667 151° Southeast 267 307 8,000 -1,368 Descending New TRACON
Mon 10:19:15 41.1500 -73.6167 143° Southeast 256 295 6,400 -1,550 Descending New TRACON
Mon 10:20:15 41.0833 -73.6333 191° South 270 311 4,900 -1,150 Descending New TRACON
Mon 10:21:15 41.0167 -73.6833 210° Southwest 276 318 4,100 -429 Descending New TRACON
Mon 10:22:21 40.9500 -73.7500 217° Southwest 273 314 4,000 -48 Descending New TRACON
Mon 10:23:21 40.9333 -73.8333 255° West 257 296 4,000 48 Level New TRACON
Mon 10:24:27 40.8833 -73.8833 217° Southwest 184 212 4,100  Climbing New TRACON
Mon 10:25:21 40.8500 -73.9167 217° Southwest 186 214 4,000 -53 Descending New TRACON
Mon 10:26:21 40.8000 -73.9667 217° Southwest 184 212 4,000  Level New TRACON
Mon 10:27:21 40.7500 -74.0000 207° Southwest 189 217 4,000 50 Level New TRACON
Mon 10:28:21 40.7167 -74.0333 217° Southwest 196 226 4,100  Climbing New TRACON
Mon 10:29:21 40.6667 -74.0667 207° Southwest 196 226 4,000 -50 Descending New TRACON
Mon 10:30:21 40.6167 -74.1167 217° Southwest 197 227 4,000 -450 Level New TRACON
Mon 10:31:21 40.5833 -74.0833 143° Southeast 173 199 3,100 -900 Descending New TRACON

Login

Don't have an account? Register now (free) for customized features, flight alerts, and more!